Time;durP1;ratioP1;P1;durP2;ratioP2;P2;SDS_P1;SDS_P2;PMS_P1;PMS_P2;Temp;Humidity;BMP_temperature;BMP_pressure;BME280_temperature;BME280_humidity;BME280_pressure;Samples;Min_cycle;Max_cycle;Signal;HPM_P1;HPM_P2
2022/01/20 00:02:06;;;;;;;7.35;4.18;;;;;;;18.87;19.88;97908.03;5054669;28;20102;-80
2022/01/20 00:04:48;;;;;;;8.23;4.30;;;;;;;19.08;19.73;97912.72;5054738;28;20039;-80
2022/01/20 00:26:03;;;;;;;10.40;4.95;;;;;;;18.54;20.71;97903.78;5054657;28;20037;-80
2022/01/20 00:28:55;;;;;;;7.60;4.75;;;;;;;18.37;20.51;97906.53;5054259;28;20033;-80
2022/01/20 00:33:50;;;;;;;9.70;5.18;;;;;;;20.19;19.15;97889.28;5055336;28;20045;-80
2022/01/20 00:38:44;;;;;;;10.20;4.82;;;;;;;18.14;21.51;97904.19;5071194;28;20040;-80
2022/01/20 00:41:15;;;;;;;8.95;4.70;;;;;;;19.29;20.32;97898.69;5053697;28;20041;-80
2022/01/20 00:43:42;;;;;;;10.85;5.40;;;;;;;18.61;20.61;97900.97;5054120;28;20127;-80
2022/01/20 00:46:08;;;;;;;9.10;3.97;;;;;;;18.40;21.12;97897.41;5053922;28;20025;-80
2022/01/20 00:48:34;;;;;;;8.30;4.72;;;;;;;18.52;21.19;97895.03;5054369;28;20493;-80
2022/01/20 00:51:01;;;;;;;9.60;4.55;;;;;;;17.71;21.81;97905.41;5055991;28;20064;-80
2022/01/20 00:53:27;;;;;;;11.00;4.70;;;;;;;17.61;21.95;97914.50;5062653;28;20539;-80
2022/01/20 00:55:53;;;;;;;9.73;5.18;;;;;;;18.32;21.20;97918.84;5053810;28;20101;-80
2022/01/20 00:58:19;;;;;;;8.68;4.28;;;;;;;19.58;20.13;97927.97;5054014;28;20036;-80
2022/01/20 01:00:45;;;;;;;10.23;4.63;;;;;;;19.96;19.34;97920.53;5053539;28;20039;-81
2022/01/20 01:03:11;;;;;;;9.57;5.30;;;;;;;19.08;20.39;97932.19;5053558;28;20154;-80
2022/01/20 01:05:48;;;;;;;9.75;4.75;;;;;;;19.07;20.45;97916.69;5054178;28;20029;-80
2022/01/20 01:08:14;;;;;;;10.80;4.90;;;;;;;20.67;18.81;97923.50;5054060;28;20032;-80
2022/01/20 01:10:44;;;;;;;6.82;3.80;;;;;;;21.84;17.62;97909.63;5053521;28;20029;-80
2022/01/20 01:13:13;;;;;;;8.45;4.60;;;;;;;22.01;17.48;97904.97;5053710;28;20033;-81
2022/01/20 01:15:44;;;;;;;6.80;4.20;;;;;;;22.19;17.30;97885.91;5053750;28;20039;-80
2022/01/20 01:23:32;;;;;;;8.13;4.20;;;;;;;22.21;17.21;97889.06;5059223;28;20061;-80
2022/01/20 01:26:00;;;;;;;7.38;3.78;;;;;;;22.59;16.81;97876.34;5053943;28;20060;-80
2022/01/20 01:28:29;;;;;;;8.38;3.25;;;;;;;22.99;16.42;97868.78;5053330;28;20033;-80
2022/01/20 01:33:37;;;;;;;7.72;4.07;;;;;;;22.65;16.95;97845.91;5053870;28;20040;-80
2022/01/20 01:36:06;;;;;;;11.40;4.78;;;;;;;21.67;17.90;97843.63;5053109;28;20047;-80
2022/01/20 01:38:39;;;;;;;9.70;4.85;;;;;;;21.15;18.10;97832.03;5053311;28;20021;-80
2022/01/20 01:41:10;;;;;;;9.48;4.80;;;;;;;21.47;17.99;97839.91;5053357;28;20040;-80
2022/01/20 01:43:37;;;;;;;;;;;;;;;21.48;18.01;97829.53;5053507;28;20060;-81
2022/01/20 01:46:04;;;;;;;8.52;4.38;;;;;;;21.56;17.92;97811.47;5055948;28;19912;-80
2022/01/20 01:48:31;;;;;;;5.72;3.67;;;;;;;21.44;17.98;97828.81;5053975;28;20404;-80
2022/01/20 01:50:59;;;;;;;8.82;4.38;;;;;;;21.20;18.38;97814.00;5057213;28;20456;-80
2022/01/20 01:53:26;;;;;;;8.10;4.88;;;;;;;21.19;18.25;97813.22;5057407;28;20423;-80
2022/01/20 01:55:53;;;;;;;9.88;4.22;;;;;;;20.20;19.39;97805.25;5057830;28;20404;-80
2022/01/20 01:58:19;;;;;;;6.20;3.65;;;;;;;19.92;19.58;97791.63;5057685;28;20489;-80
2022/01/20 02:00:45;;;;;;;7.32;3.88;;;;;;;19.66;20.14;97792.25;5069288;28;20032;-80
2022/01/20 02:03:13;;;;;;;5.75;3.85;;;;;;;20.72;19.04;97805.88;5056910;28;20496;-80
2022/01/20 02:05:57;;;;;;;12.23;4.43;;;;;;;21.30;18.39;97785.94;5056697;28;20036;-80
2022/01/20 02:08:31;;;;;;;6.88;3.80;;;;;;;21.67;17.96;97779.34;5055627;28;20115;-80
2022/01/20 02:19:31;;;;;;;8.75;3.72;;;;;;;22.64;17.00;97755.56;5061432;28;20414;-80
2022/01/20 02:22:02;;;;;;;5.80;3.50;;;;;;;22.88;16.76;97749.84;5069064;28;20504;-80
2022/01/20 02:24:30;;;;;;;7.75;4.30;;;;;;;22.31;17.14;97753.81;5076551;28;20028;-80
2022/01/20 02:26:57;;;;;;;7.00;3.53;;;;;;;21.84;17.69;97729.97;5076689;28;20069;-80
2022/01/20 02:29:23;;;;;;;5.00;3.30;;;;;;;21.90;17.74;97745.03;5075768;28;20181;-80
2022/01/20 02:31:54;;;;;;;10.10;4.25;;;;;;;21.81;17.67;97739.19;5076409;28;20031;-80
2022/01/20 02:34:21;;;;;;;7.95;3.90;;;;;;;21.22;18.43;97745.38;5075840;28;20025;-80
2022/01/20 02:36:48;;;;;;;6.72;3.67;;;;;;;21.00;18.95;97732.13;5076610;28;20143;-80
2022/01/20 02:44:54;;;;;;;6.22;3.65;;;;;;;21.04;18.76;97727.28;5056333;28;20091;-80
2022/01/20 02:47:23;;;;;;;4.50;2.92;;;;;;;22.01;17.93;97704.47;5056808;28;20025;-80
2022/01/20 02:49:50;;;;;;;4.05;3.25;;;;;;;21.57;18.09;97726.44;5056515;28;20504;-80
2022/01/20 02:52:16;;;;;;;5.45;3.55;;;;;;;21.67;18.15;97717.09;5054854;28;20025;-80
2022/01/20 02:54:43;;;;;;;4.30;3.10;;;;;;;21.72;18.20;97709.00;5056082;28;20047;-79
2022/01/20 02:57:10;;;;;;;8.50;3.47;;;;;;;22.05;17.73;97698.03;5055981;28;20387;-80
2022/01/20 02:59:38;;;;;;;5.78;3.30;;;;;;;21.26;18.25;97690.25;5055289;28;20033;-80
2022/01/20 03:02:06;;;;;;;4.28;3.28;;;;;;;21.81;17.86;97697.25;5055118;28;20040;-80
2022/01/20 03:04:32;;;;;;;5.45;3.10;;;;;;;21.47;18.29;97708.63;5070394;28;20050;-80
2022/01/20 03:06:59;;;;;;;5.50;2.80;;;;;;;21.39;18.33;97703.63;5075421;28;20039;-80
2022/01/20 03:09:25;;;;;;;3.47;2.15;;;;;;;21.58;18.04;97695.31;5068908;28;20033;-79
2022/01/20 03:11:51;;;;;;;6.63;3.42;;;;;;;21.18;18.44;97699.97;5054487;28;20392;-80
2022/01/20 03:14:18;;;;;;;3.95;2.53;;;;;;;21.82;17.95;97693.28;5055580;28;20075;-80
2022/01/20 03:16:45;;;;;;;8.27;3.13;;;;;;;21.41;18.21;97692.81;5055500;28;20057;-80
2022/01/20 03:19:11;;;;;;;3.42;2.13;;;;;;;22.04;17.81;97694.44;5055466;28;20055;-80
2022/01/20 03:21:38;;;;;;;4.53;2.15;;;;;;;21.85;17.72;97690.41;5055844;28;20040;-80
2022/01/20 03:24:06;;;;;;;5.47;2.38;;;;;;;21.86;17.85;97680.84;5056040;28;20095;-80
2022/01/20 03:26:32;;;;;;;5.43;2.50;;;;;;;22.22;17.37;97674.53;5055463;28;20438;-80
2022/01/20 03:28:58;;;;;;;3.25;1.95;;;;;;;22.51;17.24;97687.47;5055406;28;20469;-80
2022/01/20 03:31:25;;;;;;;4.68;2.10;;;;;;;22.16;17.40;97674.22;5055116;28;20028;-80
2022/01/20 03:33:51;;;;;;;4.68;1.85;;;;;;;22.03;17.67;97676.88;5059989;28;20028;-80
2022/01/20 03:36:18;;;;;;;3.28;2.20;;;;;;;22.76;16.88;97677.75;5073508;28;20037;-80
2022/01/20 03:38:45;;;;;;;4.45;2.42;;;;;;;22.09;17.48;97673.59;5065945;28;20029;-80
2022/01/20 03:41:11;;;;;;;3.40;2.20;;;;;;;22.33;17.13;97677.88;5055782;28;20037;-79
2022/01/20 03:43:37;;;;;;;2.97;1.73;;;;;;;22.04;17.52;97672.09;5068746;28;20104;-80
2022/01/20 03:46:09;;;;;;;4.05;1.92;;;;;;;22.48;17.18;97665.94;5074848;28;20039;-80
2022/01/20 03:48:39;;;;;;;4.47;1.92;;;;;;;22.97;16.95;97661.25;5075090;28;20111;-80
2022/01/20 03:51:05;;;;;;;3.20;1.80;;;;;;;23.25;16.41;97666.16;5075197;28;20440;-79
2022/01/20 03:53:36;;;;;;;4.18;1.95;;;;;;;23.40;16.38;97657.41;5073689;28;20032;-79
2022/01/20 03:56:03;;;;;;;;;;;;;;;23.72;15.87;97658.13;5074520;28;20040;-80
2022/01/20 03:58:29;;;;;;;6.43;2.10;;;;;;;23.55;16.15;97655.81;5073969;28;20420;-79
2022/01/20 04:00:55;;;;;;;3.20;1.80;;;;;;;23.63;16.11;97655.19;5074706;28;20065;-80
2022/01/20 04:03:21;;;;;;;5.93;2.10;;;;;;;23.45;16.45;97643.66;5075013;28;20037;-80
2022/01/20 04:05:57;;;;;;;3.78;2.10;;;;;;;23.42;16.34;97647.34;5074745;28;20155;-80
2022/01/20 04:08:30;;;;;;;4.38;2.10;;;;;;;23.81;16.20;97640.69;5074763;28;20399;-80
2022/01/20 04:10:57;;;;;;;9.05;3.78;;;;;;;23.60;16.04;97649.66;5055463;28;20025;-79
2022/01/20 04:13:27;;;;;;;4.55;2.45;;;;;;;22.78;16.97;97650.13;5054563;28;20040;-79
2022/01/20 04:15:54;;;;;;;4.45;2.17;;;;;;;22.65;16.97;97645.22;5054899;28;20051;-81
2022/01/20 04:18:21;;;;;;;4.47;2.40;;;;;;;22.60;17.19;97642.94;5057212;28;20037;-80
2022/01/20 04:20:48;;;;;;;6.63;2.55;;;;;;;23.36;16.56;97629.50;5074679;28;20381;-79
2022/01/20 04:23:14;;;;;;;6.22;2.45;;;;;;;21.97;17.89;97644.28;5074432;28;20035;-79
2022/01/20 04:25:40;;;;;;;4.43;2.75;;;;;;;22.59;17.17;97646.91;5074261;28;20070;-79
2022/01/20 04:28:06;;;;;;;5.70;2.13;;;;;;;22.12;17.67;97637.19;5065500;28;20036;-79
2022/01/20 04:30:33;;;;;;;4.40;2.17;;;;;;;22.02;17.81;97635.38;5054141;28;20025;-79
2022/01/20 04:32:59;;;;;;;5.43;2.17;;;;;;;21.45;18.41;97609.75;5054770;28;20037;-79
2022/01/20 04:35:25;;;;;;;3.25;2.05;;;;;;;20.99;19.06;97632.88;5054073;28;20032;-79
2022/01/20 04:37:53;;;;;;;4.85;1.95;;;;;;;21.48;18.69;97623.66;5054126;28;20064;-79
2022/01/20 04:40:21;;;;;;;4.53;2.35;;;;;;;21.85;18.15;97619.75;5054023;28;20033;-79
2022/01/20 04:42:49;;;;;;;3.63;1.83;;;;;;;21.43;18.55;97614.97;5054367;28;20082;-79
2022/01/20 04:45:26;;;;;;;3.22;2.17;;;;;;;22.29;17.90;97616.41;5054297;28;20025;-79
2022/01/20 04:48:12;;;;;;;2.80;1.70;;;;;;;21.52;18.38;97615.22;5053994;28;20025;-79
2022/01/20 04:58:52;;;;;;;3.83;1.90;;;;;;;22.57;17.74;97610.19;5053917;28;20463;-79
2022/01/20 05:01:18;;;;;;;5.30;2.35;;;;;;;21.17;18.81;97609.03;5067681;28;20028;-78
2022/01/20 05:03:45;;;;;;;4.15;1.95;;;;;;;21.90;18.23;97608.88;5070348;28;20040;-80
2022/01/20 05:06:11;;;;;;;3.55;1.90;;;;;;;22.44;17.62;97614.09;5063063;28;20024;-79
2022/01/20 05:08:37;;;;;;;4.65;2.40;;;;;;;22.31;17.97;97610.41;5053423;28;20086;-79
2022/01/20 05:11:04;;;;;;;6.00;2.97;;;;;;;22.51;17.80;97599.94;5053944;28;20071;-79
2022/01/20 05:13:36;;;;;;;4.30;2.20;;;;;;;21.92;18.59;97591.66;5053573;28;20111;-80
2022/01/20 05:16:03;;;;;;;3.65;2.10;;;;;;;22.03;18.24;97581.81;5053696;28;20034;-79
2022/01/20 05:18:29;;;;;;;5.28;2.60;;;;;;;20.72;19.94;97605.00;5053139;28;20044;-80
2022/01/20 05:20:56;;;;;;;5.13;2.92;;;;;;;20.85;19.93;97597.63;5054171;28;20437;-79
2022/01/20 05:23:22;;;;;;;3.13;2.15;;;;;;;21.34;19.62;97580.03;5062560;28;20037;-79
2022/01/20 05:25:49;;;;;;;8.18;3.05;;;;;;;21.19;19.97;97589.09;5053408;28;20025;-79
2022/01/20 05:28:15;;;;;;;3.00;2.10;;;;;;;21.07;20.22;97582.13;5053149;28;20036;-79
2022/01/20 05:30:41;;;;;;;3.63;1.77;;;;;;;21.80;19.48;97589.47;5053323;28;20071;-79
2022/01/20 05:33:08;;;;;;;3.58;2.35;;;;;;;21.78;19.46;97580.75;5053570;28;20461;-79
2022/01/20 05:35:34;;;;;;;3.92;2.00;;;;;;;22.26;18.92;97588.53;5053271;28;20029;-79
2022/01/20 05:38:01;;;;;;;3.60;2.50;;;;;;;21.26;19.86;97572.22;5053533;28;20037;-79
2022/01/20 05:40:28;;;;;;;4.28;1.55;;;;;;;21.64;19.73;97578.25;5053719;28;20075;-79
2022/01/20 05:42:54;;;;;;;3.42;1.88;;;;;;;22.43;18.86;97579.72;5052936;28;20037;-79
2022/01/20 05:45:21;;;;;;;3.35;2.10;;;;;;;22.90;18.23;97585.03;5053129;28;20025;-79
2022/01/20 05:47:49;;;;;;;4.22;2.13;;;;;;;22.26;18.75;97577.34;5053177;28;20032;-80
2022/01/20 05:50:20;;;;;;;3.88;2.15;;;;;;;22.64;18.39;97564.47;5053526;28;20044;-79
2022/01/20 05:52:46;;;;;;;;;;;;;;;22.08;19.07;97569.34;5053588;28;20056;-79
2022/01/20 05:55:18;;;;;;;3.58;2.10;;;;;;;21.90;19.30;97566.16;5071847;28;20263;-79
2022/01/20 05:57:47;;;;;;;2.95;1.85;;;;;;;22.44;18.75;97563.75;5072079;28;20052;-80
2022/01/20 06:00:17;;;;;;;4.03;2.22;;;;;;;22.36;18.78;97562.31;5073115;28;20041;-79
2022/01/20 06:05:31;;;;;;;4.90;2.50;;;;;;;22.64;18.47;97553.28;5073468;28;20074;-79
2022/01/20 06:07:57;;;;;;;6.97;2.85;;;;;;;22.48;18.46;97565.22;5073007;28;20029;-79
2022/01/20 06:10:23;;;;;;;5.97;2.90;;;;;;;22.59;18.28;97559.41;5058328;28;20032;-79
2022/01/20 06:12:50;;;;;;;3.92;2.17;;;;;;;22.09;18.98;97558.97;5053676;28;20037;-79
2022/01/20 06:15:16;;;;;;;4.03;2.30;;;;;;;22.29;18.52;97556.88;5069906;28;20028;-79
2022/01/20 06:17:42;;;;;;;6.40;3.17;;;;;;;21.46;19.25;97553.47;5055277;28;20454;-79
2022/01/20 06:20:10;;;;;;;4.80;3.10;;;;;;;21.64;19.08;97555.88;5052607;28;20076;-80
2022/01/20 06:22:37;;;;;;;5.45;2.65;;;;;;;21.36;19.42;97560.03;5052706;28;20044;-80
2022/01/20 06:25:05;;;;;;;6.35;3.15;;;;;;;21.63;19.22;97565.50;5052432;28;20040;-80
2022/01/20 06:27:31;;;;;;;13.35;4.82;;;;;;;20.79;19.92;97551.88;5053797;28;20063;-80
2022/01/20 06:29:57;;;;;;;5.65;3.13;;;;;;;21.70;19.14;97552.19;5053103;28;20392;-80
2022/01/20 06:32:23;;;;;;;4.82;2.85;;;;;;;21.42;19.25;97557.53;5052805;28;20061;-80
2022/01/20 06:34:49;;;;;;;6.13;3.15;;;;;;;21.50;19.33;97550.59;5054385;28;20033;-80
2022/01/20 06:37:16;;;;;;;6.47;3.63;;;;;;;21.52;19.45;97539.78;5060220;28;20064;-80
2022/01/20 06:39:42;;;;;;;6.88;3.45;;;;;;;21.45;19.47;97540.69;5070980;28;20044;-80
2022/01/20 06:42:08;;;;;;;7.38;3.00;;;;;;;21.29;19.66;97527.47;5076284;28;20039;-80
2022/01/20 06:44:34;;;;;;;6.63;3.72;;;;;;;21.49;19.17;97526.69;5070275;28;20492;-80
2022/01/20 06:47:00;;;;;;;7.30;3.65;;;;;;;21.68;19.05;97511.91;5056822;28;20029;-80
2022/01/20 06:49:26;;;;;;;7.55;3.83;;;;;;;22.30;18.41;97506.13;5056120;28;20151;-80
2022/01/20 06:51:52;;;;;;;6.97;3.75;;;;;;;20.78;20.02;97514.03;5056163;28;20500;-80
2022/01/20 06:54:18;;;;;;;9.27;4.78;;;;;;;21.08;19.66;97513.13;5055891;28;20131;-80
2022/01/20 06:56:44;;;;;;;6.03;3.28;;;;;;;20.98;19.86;97512.06;5056370;28;20108;-80
2022/01/20 06:59:17;;;;;;;7.43;4.22;;;;;;;21.63;19.06;97518.00;5056161;28;20118;-80
2022/01/20 07:01:44;;;;;;;8.50;3.72;;;;;;;21.54;19.25;97512.22;5063361;28;20149;-80
2022/01/20 07:04:13;;;;;;;4.50;2.92;;;;;;;21.52;19.13;97514.66;5075055;28;20484;-80
2022/01/20 07:06:40;;;;;;;7.15;2.60;;;;;;;21.74;18.98;97518.56;5076459;28;20098;-80
2022/01/20 07:09:10;;;;;;;6.20;3.10;;;;;;;21.18;19.44;97523.31;5071562;28;20108;-80
2022/01/20 07:11:37;;;;;;;;;;;;;;;21.90;18.87;97513.84;5059669;28;20029;-80
2022/01/20 07:14:03;;;;;;;4.10;2.13;;;;;;;22.38;18.26;97515.91;5055763;28;20007;-80
2022/01/20 07:16:30;;;;;;;4.80;2.65;;;;;;;22.38;18.45;97515.91;5056211;28;20061;-80
2022/01/20 07:18:56;;;;;;;4.80;2.67;;;;;;;22.58;17.94;97513.84;5055845;28;20049;-80
2022/01/20 07:21:23;;;;;;;7.47;3.63;;;;;;;22.37;18.13;97503.16;5056127;28;20124;-80
2022/01/20 07:23:50;;;;;;;4.97;2.70;;;;;;;22.19;18.28;97513.19;5055411;28;20059;-80
2022/01/20 07:26:16;;;;;;;6.55;3.78;;;;;;;22.57;18.08;97506.66;5055426;28;20499;-81
2022/01/20 07:28:42;;;;;;;6.80;3.33;;;;;;;23.30;17.31;97502.34;5055749;28;20044;-80
2022/01/20 07:31:09;;;;;;;6.22;2.70;;;;;;;22.99;17.33;97501.22;5055474;28;20057;-80
2022/01/20 07:33:36;;;;;;;3.60;2.33;;;;;;;22.96;17.54;97504.91;5055488;28;20029;-80
2022/01/20 07:36:03;;;;;;;5.35;2.80;;;;;;;22.97;17.53;97507.25;5055753;28;20037;-80
2022/01/20 07:38:31;;;;;;;3.75;2.20;;;;;;;22.78;17.87;97510.94;5055487;28;20025;-80
2022/01/20 07:40:58;;;;;;;4.72;3.00;;;;;;;21.77;18.37;97512.91;5055150;28;20033;-81
2022/01/20 07:43:24;;;;;;;4.20;2.60;;;;;;;22.48;17.89;97500.88;5055217;28;20033;-81
2022/01/20 07:45:50;;;;;;;8.02;4.00;;;;;;;21.16;19.18;97517.34;5054801;28;20025;-81
2022/01/20 07:48:16;;;;;;;6.03;2.80;;;;;;;21.90;18.75;97525.03;5054908;28;20536;-81
2022/01/20 07:50:42;;;;;;;6.22;3.13;;;;;;;22.63;18.08;97510.56;5055138;28;20033;-81
2022/01/20 07:53:08;;;;;;;3.45;2.20;;;;;;;23.01;17.40;97512.78;5065796;28;20115;-81
2022/01/20 07:55:34;;;;;;;5.15;2.63;;;;;;;22.93;17.58;97514.97;5074174;28;20065;-81
2022/01/20 07:58:01;;;;;;;4.78;2.58;;;;;;;22.24;18.05;97521.84;5074947;28;20365;-80
2022/01/20 08:00:27;;;;;;;3.85;2.13;;;;;;;22.72;17.92;97515.53;5074809;28;20032;-81
2022/01/20 08:02:53;;;;;;;5.13;2.72;;;;;;;22.76;17.97;97526.59;5070288;28;20031;-81
2022/01/20 08:05:19;;;;;;;4.55;2.58;;;;;;;23.00;17.60;97531.59;5071243;28;20458;-81
2022/01/20 08:07:45;;;;;;;5.38;2.58;;;;;;;23.06;17.45;97512.22;5073565;28;20107;-81
2022/01/20 08:10:12;;;;;;;4.13;1.63;;;;;;;21.70;18.53;97517.88;5055999;28;20061;-81
2022/01/20 08:12:39;;;;;;;4.50;2.15;;;;;;;20.23;19.81;97514.56;5055453;28;20440;-81
2022/01/20 08:15:09;;;;;;;2.33;1.73;;;;;;;19.36;21.15;97525.66;5074619;28;20158;-81
2022/01/20 08:17:36;;;;;;;2.20;1.60;;;;;;;17.98;23.11;97553.03;5074809;28;20071;-81
2022/01/20 08:20:04;;;;;;;3.80;1.60;;;;;;;17.82;23.57;97564.66;5074163;28;20041;-81
2022/01/20 08:22:34;;;;;;;1.70;1.30;;;;;;;17.63;23.73;97542.91;5074429;28;20178;-81
2022/01/20 08:25:05;;;;;;;4.28;1.55;;;;;;;17.39;24.30;97571.53;5074653;28;20032;-81
2022/01/20 08:27:31;;;;;;;2.75;1.70;;;;;;;16.20;26.67;97576.75;5073522;28;20025;-81
2022/01/20 08:29:57;;;;;;;3.78;2.08;;;;;;;14.70;31.65;97643.94;5073419;28;20028;-81
2022/01/20 08:32:23;;;;;;;3.97;1.55;;;;;;;13.85;31.79;97627.28;5074278;28;20036;-81
2022/01/20 08:34:49;;;;;;;2.72;1.27;;;;;;;13.72;32.62;97614.91;5074169;28;20032;-81
2022/01/20 08:37:16;;;;;;;3.17;1.40;;;;;;;14.10;32.02;97597.19;5068517;28;20370;-81
2022/01/20 08:39:43;;;;;;;2.28;1.08;;;;;;;13.79;32.24;97567.31;5070323;28;20024;-80
2022/01/20 08:42:10;;;;;;;3.42;1.02;;;;;;;14.93;30.33;97556.88;5074152;28;20029;-80
2022/01/20 08:44:37;;;;;;;2.83;0.98;;;;;;;14.93;30.40;97569.91;5073163;28;20033;-80
2022/01/20 08:47:09;;;;;;;3.05;1.60;;;;;;;15.22;30.25;97569.66;5073148;28;20036;-80
2022/01/20 08:49:36;;;;;;;1.33;0.98;;;;;;;15.44;29.83;97536.59;5073775;28;20366;-81
2022/01/20 08:52:03;;;;;;;1.58;1.10;;;;;;;16.50;28.10;97562.53;5073905;28;20111;-80
2022/01/20 08:54:29;;;;;;;3.30;1.77;;;;;;;16.58;28.34;97561.38;5074223;28;20119;-81
2022/01/20 08:56:55;;;;;;;3.15;1.55;;;;;;;16.65;27.82;97566.91;5074090;28;20036;-81
2022/01/20 08:59:21;;;;;;;2.03;1.35;;;;;;;17.08;27.33;97562.88;5067815;28;20036;-81
2022/01/20 09:01:47;;;;;;;4.47;2.85;;;;;;;17.59;26.68;97569.91;5072748;28;20032;-80
2022/01/20 09:04:13;;;;;;;4.32;2.53;;;;;;;17.79;26.11;97560.69;5072822;28;20496;-81
2022/01/20 09:06:39;;;;;;;3.67;2.13;;;;;;;16.70;27.60;97574.84;5073688;28;20033;-81
2022/01/20 09:09:05;;;;;;;2.97;2.00;;;;;;;16.98;27.37;97572.03;5069558;28;20502;-81
2022/01/20 09:11:36;;;;;;;4.43;2.47;;;;;;;18.42;25.23;97562.28;5053430;28;20056;-81
2022/01/20 09:16:48;;;;;;;3.60;2.20;;;;;;;18.18;25.14;97562.47;5054026;28;20496;-81
2022/01/20 09:19:14;;;;;;;4.90;2.70;;;;;;;17.54;26.27;97560.00;5052895;28;20052;-81
2022/01/20 09:21:40;;;;;;;4.00;2.45;;;;;;;18.09;25.77;97570.44;5053953;28;20032;-81
2022/01/20 09:24:07;;;;;;;6.65;3.20;;;;;;;18.43;25.38;97552.75;5053671;28;20061;-81
2022/01/20 09:26:33;;;;;;;6.28;3.67;;;;;;;18.57;24.59;97554.66;5053281;28;20493;-81
2022/01/20 09:29:00;;;;;;;6.05;3.17;;;;;;;19.17;23.41;97529.03;5053310;28;20044;-81
2022/01/20 09:31:27;;;;;;;5.38;2.90;;;;;;;20.22;22.06;97540.06;5053555;28;20405;-81
2022/01/20 09:33:54;;;;;;;3.45;2.15;;;;;;;19.47;22.82;97531.88;5053965;28;20369;-81
2022/01/20 09:36:22;;;;;;;5.40;2.80;;;;;;;20.17;21.92;97524.56;5072479;28;20029;-81
2022/01/20 09:38:48;;;;;;;4.32;2.58;;;;;;;20.52;21.30;97510.09;5062263;28;20060;-81
2022/01/20 09:41:15;;;;;;;4.85;2.50;;;;;;;21.00;20.83;97506.06;5052936;28;20032;-81
2022/01/20 09:43:41;;;;;;;7.28;2.70;;;;;;;19.97;21.75;97502.19;5053469;28;20039;-81
2022/01/20 09:46:07;;;;;;;4.95;2.80;;;;;;;21.09;20.61;97495.16;5053229;28;20032;-81
2022/01/20 09:48:33;;;;;;;4.15;2.28;;;;;;;18.89;23.35;97470.91;5052761;28;20518;-81
2022/01/20 09:51:00;;;;;;;4.75;2.17;;;;;;;19.00;23.51;97474.34;5053950;28;20037;-80
2022/01/20 09:53:28;;;;;;;4.03;2.42;;;;;;;18.59;23.45;97463.28;5056767;28;20086;-81
2022/01/20 09:55:55;;;;;;;3.63;2.03;;;;;;;19.53;22.62;97480.13;5053582;28;20120;-81
2022/01/20 09:58:22;;;;;;;4.03;2.30;;;;;;;19.10;23.36;97462.31;5053452;28;20029;-81
2022/01/20 10:00:50;;;;;;;6.22;2.72;;;;;;;19.46;22.59;97448.78;5052923;28;20044;-81
2022/01/20 10:03:19;;;;;;;5.03;2.13;;;;;;;18.97;23.40;97452.97;5052761;28;20029;-81
2022/01/20 10:05:53;;;;;;;4.18;2.15;;;;;;;19.35;22.58;97432.19;5053266;28;20155;-81
2022/01/20 10:08:24;;;;;;;4.85;2.65;;;;;;;21.46;20.82;97443.75;5053536;28;20025;-81
2022/01/20 10:10:55;;;;;;;;;;;;;;;22.31;19.33;97442.59;5064490;28;20119;-81
2022/01/20 10:13:25;;;;;;;;;;;;;;;22.66;19.00;97444.53;5076969;28;19913;-81
2022/01/20 10:16:01;;;;;;;8.18;2.80;;;;;;;22.51;19.18;97430.09;5077479;28;19913;-81
2022/01/20 10:18:29;;;;;;;21.30;5.07;;;;;;;22.97;18.79;97425.28;5076547;28;20040;-82
2022/01/20 10:21:01;;;;;;;5.55;2.22;;;;;;;22.93;18.72;97421.78;5077782;28;20036;-81
2022/01/20 10:23:32;;;;;;;10.40;3.00;;;;;;;21.88;19.97;97423.25;5075435;28;20404;-81
2022/01/20 10:26:06;;;;;;;7.57;2.40;;;;;;;22.74;19.15;97417.13;5066525;28;20037;-81
2022/01/20 10:28:46;;;;;;;17.98;5.30;;;;;;;23.30;18.87;97407.13;5057229;28;20108;-81
2022/01/20 10:31:13;;;;;;;17.02;4.68;;;;;;;24.03;18.07;97394.88;5055384;28;20029;-81
2022/01/20 10:33:43;;;;;;;6.20;2.10;;;;;;;24.27;17.91;97398.13;5056411;28;20477;-81
2022/01/20 10:36:10;;;;;;;15.93;3.42;;;;;;;23.53;18.11;97400.47;5056690;28;20063;-81
2022/01/20 10:38:37;;;;;;;4.15;1.27;;;;;;;21.77;19.15;97386.38;5056322;28;20025;-81
2022/01/20 10:41:04;;;;;;;4.30;1.73;;;;;;;21.52;19.06;97383.38;5056262;28;20029;-81
2022/01/20 10:43:34;;;;;;;3.25;1.30;;;;;;;22.14;18.48;97357.94;5056989;28;20029;-82
2022/01/20 10:46:08;;;;;;;5.35;2.03;;;;;;;22.44;18.12;97348.34;5056413;28;20029;-81
2022/01/20 10:48:34;;;;;;;3.83;1.00;;;;;;;21.00;19.08;97341.41;5056278;28;20481;-82
2022/01/20 10:51:00;;;;;;;3.30;1.05;;;;;;;21.43;18.30;97346.84;5056229;28;20029;-81
2022/01/20 10:53:27;;;;;;;4.60;1.42;;;;;;;20.94;18.53;97355.06;5056276;28;20033;-81
2022/01/20 10:56:04;;;;;;;3.97;1.52;;;;;;;21.48;17.56;97337.97;5056167;28;20064;-81
2022/01/20 10:58:31;;;;;;;3.85;1.20;;;;;;;19.81;19.06;97326.50;5056573;28;20044;-81
2022/01/20 11:00:59;;;;;;;2.38;0.93;;;;;;;20.60;17.97;97321.13;5056202;28;20036;-81
2022/01/20 11:03:27;;;;;;;2.15;0.93;;;;;;;19.48;18.93;97310.75;5057690;28;20052;-81
2022/01/20 11:05:56;;;;;;;2.70;0.90;;;;;;;20.19;18.05;97315.09;5066835;28;20029;-81
2022/01/20 11:08:22;;;;;;;2.38;0.77;;;;;;;19.77;18.26;97295.16;5055929;28;20033;-81
2022/01/20 11:10:51;;;;;;;4.40;0.93;;;;;;;20.31;17.71;97297.78;5069397;28;20081;-81
2022/01/20 11:13:19;;;;;;;3.70;1.08;;;;;;;19.92;17.74;97302.06;5075738;28;20499;-81
2022/01/20 11:15:46;;;;;;;4.70;0.95;;;;;;;18.55;18.38;97304.84;5075228;28;20384;-81
2022/01/20 11:18:13;;;;;;;4.47;1.27;;;;;;;18.26;18.52;97292.47;5055864;28;20029;-81
2022/01/20 11:20:45;;;;;;;7.65;1.00;;;;;;;18.06;18.62;97290.72;5055405;28;20619;-81
2022/01/20 11:23:12;;;;;;;3.42;0.90;;;;;;;18.82;17.95;97277.13;5055667;28;20029;-81
2022/01/20 11:25:41;;;;;;;3.00;0.75;;;;;;;18.86;18.03;97288.16;5055794;28;20025;-81
2022/01/20 11:28:08;;;;;;;1.50;0.52;;;;;;;17.72;19.36;97305.31;5055747;28;20025;-81
2022/01/20 11:30:39;;;;;;;2.03;0.90;;;;;;;17.45;19.89;97278.56;5055275;28;20463;-81
2022/01/20 11:33:09;;;;;;;;;;;;;;;16.49;20.48;97286.66;5058636;28;20036;-81
2022/01/20 11:35:48;;;;;;;2.28;0.60;;;;;;;15.58;21.95;97296.75;5075701;28;19919;-81
2022/01/20 11:38:20;;;;;;;5.70;0.75;;;;;;;15.45;23.25;97326.00;5065927;28;20115;-81
2022/01/20 11:40:59;;;;;;;1.88;0.70;;;;;;;14.09;25.11;97319.63;5067661;28;20534;-82
2022/01/20 11:43:38;;;;;;;4.25;1.00;;;;;;;14.64;24.67;97334.09;5055818;28;20366;-81
2022/01/20 11:46:15;;;;;;;7.13;0.77;;;;;;;13.88;28.96;97393.97;5055003;28;20052;-81
2022/01/20 11:48:53;;;;;;;8.32;1.10;;;;;;;10.97;49.10;97433.53;5055483;28;20072;-81
2022/01/20 11:51:20;;;;;;;5.10;0.40;;;;;;;9.01;55.10;97453.97;5067801;28;20052;-81
2022/01/20 11:54:04;;;;;;;1.27;0.20;;;;;;;10.00;43.27;97464.72;5074291;28;20028;-80
2022/01/20 11:56:39;;;;;;;0.93;0.30;;;;;;;10.15;45.80;97477.63;5075215;28;20042;-80
2022/01/20 11:59:08;;;;;;;0.63;0.30;;;;;;;10.49;41.43;97499.97;5074728;28;20056;-80
2022/01/20 12:01:48;;;;;;;0.55;0.30;;;;;;;11.52;38.64;97499.00;5074749;28;20150;-80
2022/01/20 12:04:15;;;;;;;0.80;0.40;;;;;;;11.79;36.92;97478.69;5075154;28;20033;-80
2022/01/20 12:06:45;;;;;;;0.73;0.43;;;;;;;11.66;37.08;97485.50;5075121;28;20541;-80
2022/01/20 12:09:13;;;;;;;1.70;0.40;;;;;;;12.38;34.90;97480.03;5057255;28;20039;-80
2022/01/20 12:11:46;;;;;;;1.13;0.47;;;;;;;12.98;32.86;97470.63;5055322;28;20033;-80
2022/01/20 12:14:24;;;;;;;2.88;0.60;;;;;;;14.03;30.68;97470.16;5054639;28;20029;-80
2022/01/20 12:16:50;;;;;;;2.78;0.77;;;;;;;14.63;28.59;97433.94;5054659;28;20037;-80
2022/01/20 12:19:16;;;;;;;0.43;0.40;;;;;;;14.07;28.81;97470.22;5054455;28;20118;-80
2022/01/20 12:21:49;;;;;;;0.73;0.50;;;;;;;14.09;28.73;97471.41;5054747;28;20036;-80
2022/01/20 12:24:15;;;;;;;1.27;0.80;;;;;;;14.35;27.95;97465.69;5058335;28;20092;-80
2022/01/20 12:26:41;;;;;;;2.88;0.65;;;;;;;15.21;27.08;97473.28;5073123;28;20032;-80
2022/01/20 12:29:09;;;;;;;2.90;0.80;;;;;;;14.44;27.25;97468.94;5072079;28;20029;-80
2022/01/20 12:31:51;;;;;;;1.83;0.50;;;;;;;16.00;25.75;97475.06;5074487;28;20041;-80
2022/01/20 12:34:21;;;;;;;3.67;0.93;;;;;;;15.38;25.58;97469.00;5068572;28;20039;-80
2022/01/20 12:36:55;;;;;;;1.58;0.70;;;;;;;15.95;24.95;97456.06;5056972;28;20033;-80
2022/01/20 12:39:32;;;;;;;3.42;1.40;;;;;;;15.27;25.78;97470.91;5062486;28;20029;-80